sensor_id;sensor_type;location;lat;lon;timestamp;temperature;humidity
20911;DHT22;10615;42.702;23.314;2023-05-29T00:00:25;16.20;99.90
20911;DHT22;10615;42.702;23.314;2023-05-29T00:01:26;16.10;99.90
20911;DHT22;10615;42.702;23.314;2023-05-29T00:02:27;16.10;99.90
20911;DHT22;10615;42.702;23.314;2023-05-29T00:03:27;16.10;99.90
20911;DHT22;10615;42.702;23.314;2023-05-29T00:04:29;16.10;99.90
20911;DHT22;10615;42.702;23.314;2023-05-29T00:05:29;16.10;99.90
20911;DHT22;10615;42.702;23.314;2023-05-29T00:06:30;16.10;99.90
20911;DHT22;10615;42.702;23.314;2023-05-29T00:07:31;16.10;99.90
20911;DHT22;10615;42.702;23.314;2023-05-29T00:08:32;16.00;99.90
20911;DHT22;10615;42.702;23.314;2023-05-29T00:09:33;16.00;99.90
20911;DHT22;10615;42.702;23.314;2023-05-29T00:10:33;16.00;99.90
20911;DHT22;10615;42.702;23.314;2023-05-29T00:11:35;16.00;99.90
20911;DHT22;10615;42.702;23.314;2023-05-29T00:12:36;16.00;99.90
20911;DHT22;10615;42.702;23.314;2023-05-29T00:13:37;16.00;99.90
20911;DHT22;10615;42.702;23.314;2023-05-29T00:14:37;16.00;99.90
20911;DHT22;10615;42.702;23.314;2023-05-29T00:15:38;16.00;99.90
20911;DHT22;10615;42.702;23.314;2023-05-29T00:16:39;16.00;99.90
20911;DHT22;10615;42.702;23.314;2023-05-29T00:17:39;16.00;99.90
20911;DHT22;10615;42.702;23.314;2023-05-29T00:18:40;16.10;99.90
20911;DHT22;10615;42.702;23.314;2023-05-29T00:19:45;16.10;99.90
20911;DHT22;10615;42.702;23.314;2023-05-29T00:20:46;16.10;99.90
20911;DHT22;10615;42.702;23.314;2023-05-29T00:21:46;16.10;99.90
20911;DHT22;10615;42.702;23.314;2023-05-29T00:22:48;16.10;99.90
20911;DHT22;10615;42.702;23.314;2023-05-29T00:23:48;16.10;99.90
20911;DHT22;10615;42.702;23.314;2023-05-29T00:24:49;16.00;99.90
20911;DHT22;10615;42.702;23.314;2023-05-29T00:25:49;16.00;99.90
20911;DHT22;10615;42.702;23.314;2023-05-29T00:26:50;16.00;99.90
20911;DHT22;10615;42.702;23.314;2023-05-29T00:27:50;16.00;99.90
20911;DHT22;10615;42.702;23.314;2023-05-29T00:28:51;16.00;99.90
20911;DHT22;10615;42.702;23.314;2023-05-29T00:29:52;15.90;99.90
20911;DHT22;10615;42.702;23.314;2023-05-29T00:30:52;15.90;99.90
20911;DHT22;10615;42.702;23.314;2023-05-29T00:31:53;15.80;99.90
20911;DHT22;10615;42.702;23.314;2023-05-29T00:32:53;15.90;99.90
20911;DHT22;10615;42.702;23.314;2023-05-29T00:33:54;15.90;99.90
20911;DHT22;10615;42.702;23.314;2023-05-29T00:34:54;15.90;99.90
20911;DHT22;10615;42.702;23.314;2023-05-29T00:35:55;15.90;99.90
20911;DHT22;10615;42.702;23.314;2023-05-29T00:36:56;15.90;99.90
20911;DHT22;10615;42.702;23.314;2023-05-29T00:37:57;16.00;99.90
20911;DHT22;10615;42.702;23.314;2023-05-29T00:38:58;15.90;99.90
20911;DHT22;10615;42.702;23.314;2023-05-29T00:39:58;16.00;99.90
20911;DHT22;10615;42.702;23.314;2023-05-29T00:40:59;16.00;99.90
20911;DHT22;10615;42.702;23.314;2023-05-29T00:41:59;16.00;99.90
20911;DHT22;10615;42.702;23.314;2023-05-29T00:43:00;15.90;99.90
20911;DHT22;10615;42.702;23.314;2023-05-29T00:44:01;15.90;99.90
20911;DHT22;10615;42.702;23.314;2023-05-29T00:45:01;15.90;99.90
20911;DHT22;10615;42.702;23.314;2023-05-29T00:46:02;15.90;99.90
20911;DHT22;10615;42.702;23.314;2023-05-29T00:47:02;15.90;99.90
20911;DHT22;10615;42.702;23.314;2023-05-29T00:48:03;15.90;99.90
20911;DHT22;10615;42.702;23.314;2023-05-29T00:49:04;16.00;99.90
20911;DHT22;10615;42.702;23.314;2023-05-29T00:50:05;16.00;99.90
20911;DHT22;10615;42.702;23.314;2023-05-29T00:51:06;16.00;99.90
20911;DHT22;10615;42.702;23.314;2023-05-29T00:52:07;16.00;99.90
20911;DHT22;10615;42.702;23.314;2023-05-29T00:53:09;16.00;99.90
20911;DHT22;10615;42.702;23.314;2023-05-29T00:54:11;16.00;99.90
20911;DHT22;10615;42.702;23.314;2023-05-29T00:55:12;16.00;99.90
20911;DHT22;10615;42.702;23.314;2023-05-29T00:56:14;16.00;99.90
20911;DHT22;10615;42.702;23.314;2023-05-29T00:57:14;15.90;99.90
20911;DHT22;10615;42.702;23.314;2023-05-29T00:58:16;15.90;99.90
20911;DHT22;10615;42.702;23.314;2023-05-29T00:59:17;15.90;99.90
20911;DHT22;10615;42.702;23.314;2023-05-29T01:00:21;15.80;99.90
20911;DHT22;10615;42.702;23.314;2023-05-29T01:01:22;15.80;99.90
20911;DHT22;10615;42.702;23.314;2023-05-29T01:02:23;15.80;99.90
20911;DHT22;10615;42.702;23.314;2023-05-29T01:03:23;15.80;99.90
20911;DHT22;10615;42.702;23.314;2023-05-29T01:04:25;15.80;99.90
20911;DHT22;10615;42.702;23.314;2023-05-29T01:05:26;15.80;99.90
20911;DHT22;10615;42.702;23.314;2023-05-29T01:06:27;15.70;99.90
20911;DHT22;10615;42.702;23.314;2023-05-29T01:07:27;15.70;99.90
20911;DHT22;10615;42.702;23.314;2023-05-29T01:08:28;15.70;99.90
20911;DHT22;10615;42.702;23.314;2023-05-29T01:09:29;15.70;99.90
20911;DHT22;10615;42.702;23.314;2023-05-29T01:10:30;15.70;99.90
20911;DHT22;10615;42.702;23.314;2023-05-29T01:11:41;15.80;99.90
20911;DHT22;10615;42.702;23.314;2023-05-29T01:13:46;15.70;99.90
20911;DHT22;10615;42.702;23.314;2023-05-29T01:15:58;15.70;99.90
20911;DHT22;10615;42.702;23.314;2023-05-29T01:17:23;15.80;99.90
20911;DHT22;10615;42.702;23.314;2023-05-29T01:18:39;15.80;99.90
20911;DHT22;10615;42.702;23.314;2023-05-29T01:20:50;15.80;99.90
20911;DHT22;10615;42.702;23.314;2023-05-29T01:26:09;15.80;99.90
20911;DHT22;10615;42.702;23.314;2023-05-29T01:27:11;15.70;99.90
20911;DHT22;10615;42.702;23.314;2023-05-29T01:28:15;15.80;99.90
20911;DHT22;10615;42.702;23.314;2023-05-29T01:29:21;15.70;99.90
20911;DHT22;10615;42.702;23.314;2023-05-29T01:30:23;15.70;99.90
20911;DHT22;10615;42.702;23.314;2023-05-29T01:31:25;15.60;99.90
20911;DHT22;10615;42.702;23.314;2023-05-29T01:32:26;15.50;99.90
20911;DHT22;10615;42.702;23.314;2023-05-29T01:33:26;15.50;99.90
20911;DHT22;10615;42.702;23.314;2023-05-29T01:34:28;15.40;99.90
20911;DHT22;10615;42.702;23.314;2023-05-29T01:35:29;15.40;99.90
20911;DHT22;10615;42.702;23.314;2023-05-29T01:36:29;15.40;99.90
20911;DHT22;10615;42.702;23.314;2023-05-29T01:37:30;15.40;99.90
20911;DHT22;10615;42.702;23.314;2023-05-29T01:38:31;15.30;99.90
20911;DHT22;10615;42.702;23.314;2023-05-29T01:39:31;15.30;99.90
20911;DHT22;10615;42.702;23.314;2023-05-29T01:40:32;15.40;99.90
20911;DHT22;10615;42.702;23.314;2023-05-29T01:41:33;15.30;99.90
20911;DHT22;10615;42.702;23.314;2023-05-29T01:42:34;15.30;99.90
20911;DHT22;10615;42.702;23.314;2023-05-29T01:43:35;15.30;99.90
20911;DHT22;10615;42.702;23.314;2023-05-29T01:44:36;15.30;99.90
20911;DHT22;10615;42.702;23.314;2023-05-29T01:45:37;15.30;99.90
20911;DHT22;10615;42.702;23.314;2023-05-29T01:46:38;15.30;99.90
20911;DHT22;10615;42.702;23.314;2023-05-29T01:47:39;15.30;99.90
20911;DHT22;10615;42.702;23.314;2023-05-29T01:48:40;15.30;99.90
20911;DHT22;10615;42.702;23.314;2023-05-29T01:49:41;15.40;99.90
20911;DHT22;10615;42.702;23.314;2023-05-29T01:50:42;15.40;99.90
20911;DHT22;10615;42.702;23.314;2023-05-29T01:51:44;15.50;99.90
20911;DHT22;10615;42.702;23.314;2023-05-29T01:52:44;15.50;99.90
20911;DHT22;10615;42.702;23.314;2023-05-29T01:53:46;15.50;99.90
20911;DHT22;10615;42.702;23.314;2023-05-29T01:54:46;15.50;99.90
20911;DHT22;10615;42.702;23.314;2023-05-29T01:55:47;15.60;99.90
20911;DHT22;10615;42.702;23.314;2023-05-29T01:56:48;15.60;99.90
20911;DHT22;10615;42.702;23.314;2023-05-29T01:57:49;15.60;99.90
20911;DHT22;10615;42.702;23.314;2023-05-29T01:58:50;15.60;99.90
20911;DHT22;10615;42.702;23.314;2023-05-29T01:59:51;15.60;99.90
20911;DHT22;10615;42.702;23.314;2023-05-29T02:00:52;15.50;99.90
20911;DHT22;10615;42.702;23.314;2023-05-29T02:01:53;15.50;99.90
20911;DHT22;10615;42.702;23.314;2023-05-29T02:02:53;15.50;99.90
20911;DHT22;10615;42.702;23.314;2023-05-29T02:03:54;15.50;99.90
20911;DHT22;10615;42.702;23.314;2023-05-29T02:04:55;15.50;99.90
20911;DHT22;10615;42.702;23.314;2023-05-29T02:05:56;15.50;99.90
20911;DHT22;10615;42.702;23.314;2023-05-29T02:06:57;15.40;99.90
20911;DHT22;10615;42.702;23.314;2023-05-29T02:07:58;15.50;99.90
20911;DHT22;10615;42.702;23.314;2023-05-29T02:08:58;15.40;99.90
20911;DHT22;10615;42.702;23.314;2023-05-29T02:09:59;15.40;99.90
20911;DHT22;10615;42.702;23.314;2023-05-29T02:10:59;15.40;99.90
20911;DHT22;10615;42.702;23.314;2023-05-29T02:12:00;15.50;99.90
20911;DHT22;10615;42.702;23.314;2023-05-29T02:13:02;15.40;99.90
20911;DHT22;10615;42.702;23.314;2023-05-29T02:14:02;15.40;99.90
20911;DHT22;10615;42.702;23.314;2023-05-29T02:15:04;15.40;99.90
20911;DHT22;10615;42.702;23.314;2023-05-29T02:16:05;15.40;99.90
20911;DHT22;10615;42.702;23.314;2023-05-29T02:17:05;15.40;99.90
20911;DHT22;10615;42.702;23.314;2023-05-29T02:18:08;15.40;99.90
20911;DHT22;10615;42.702;23.314;2023-05-29T02:19:09;15.50;99.90
20911;DHT22;10615;42.702;23.314;2023-05-29T02:20:10;15.50;99.90
20911;DHT22;10615;42.702;23.314;2023-05-29T02:21:11;15.50;99.90
20911;DHT22;10615;42.702;23.314;2023-05-29T02:22:12;15.50;99.90
20911;DHT22;10615;42.702;23.314;2023-05-29T02:23:12;15.50;99.90
20911;DHT22;10615;42.702;23.314;2023-05-29T02:24:13;15.40;99.90
20911;DHT22;10615;42.702;23.314;2023-05-29T02:25:13;15.50;99.90
20911;DHT22;10615;42.702;23.314;2023-05-29T02:26:14;15.50;99.90
20911;DHT22;10615;42.702;23.314;2023-05-29T02:27:15;15.50;99.90
20911;DHT22;10615;42.702;23.314;2023-05-29T02:28:16;15.50;99.90
20911;DHT22;10615;42.702;23.314;2023-05-29T02:29:16;15.50;99.90
20911;DHT22;10615;42.702;23.314;2023-05-29T02:30:17;15.50;99.90
20911;DHT22;10615;42.702;23.314;2023-05-29T02:31:18;15.40;99.90
20911;DHT22;10615;42.702;23.314;2023-05-29T02:32:18;15.40;99.90
20911;DHT22;10615;42.702;23.314;2023-05-29T02:33:19;15.40;99.90
20911;DHT22;10615;42.702;23.314;2023-05-29T02:34:20;15.30;99.90
20911;DHT22;10615;42.702;23.314;2023-05-29T02:35:23;15.30;99.90
20911;DHT22;10615;42.702;23.314;2023-05-29T02:36:23;15.30;99.90
20911;DHT22;10615;42.702;23.314;2023-05-29T02:37:24;15.20;99.90
20911;DHT22;10615;42.702;23.314;2023-05-29T02:38:26;15.30;99.90
20911;DHT22;10615;42.702;23.314;2023-05-29T02:39:26;15.30;99.90
20911;DHT22;10615;42.702;23.314;2023-05-29T02:40:27;15.30;99.90
20911;DHT22;10615;42.702;23.314;2023-05-29T02:41:27;15.30;99.90
20911;DHT22;10615;42.702;23.314;2023-05-29T02:42:28;15.30;99.90
20911;DHT22;10615;42.702;23.314;2023-05-29T02:43:28;15.30;99.90
20911;DHT22;10615;42.702;23.314;2023-05-29T02:44:29;15.40;99.90
20911;DHT22;10615;42.702;23.314;2023-05-29T02:45:29;15.40;99.90
20911;DHT22;10615;42.702;23.314;2023-05-29T02:46:30;15.40;99.90
20911;DHT22;10615;42.702;23.314;2023-05-29T02:47:30;15.40;99.90
20911;DHT22;10615;42.702;23.314;2023-05-29T02:48:31;15.40;99.90
20911;DHT22;10615;42.702;23.314;2023-05-29T02:49:31;15.30;99.90
20911;DHT22;10615;42.702;23.314;2023-05-29T02:50:32;15.30;99.90
20911;DHT22;10615;42.702;23.314;2023-05-29T02:51:33;15.30;99.90
20911;DHT22;10615;42.702;23.314;2023-05-29T02:52:33;15.30;99.90
20911;DHT22;10615;42.702;23.314;2023-05-29T02:53:34;15.30;99.90
20911;DHT22;10615;42.702;23.314;2023-05-29T02:54:34;15.30;99.90
20911;DHT22;10615;42.702;23.314;2023-05-29T02:55:35;15.30;99.90
20911;DHT22;10615;42.702;23.314;2023-05-29T02:56:36;15.30;99.90
20911;DHT22;10615;42.702;23.314;2023-05-29T02:57:36;15.30;99.90
20911;DHT22;10615;42.702;23.314;2023-05-29T02:58:37;15.30;99.90
20911;DHT22;10615;42.702;23.314;2023-05-29T02:59:37;15.30;99.90
20911;DHT22;10615;42.702;23.314;2023-05-29T03:00:38;15.30;99.90
20911;DHT22;10615;42.702;23.314;2023-05-29T03:01:39;15.40;99.90
20911;DHT22;10615;42.702;23.314;2023-05-29T03:02:39;15.40;99.90
20911;DHT22;10615;42.702;23.314;2023-05-29T03:03:40;15.40;99.90
20911;DHT22;10615;42.702;23.314;2023-05-29T03:04:40;15.40;99.90
20911;DHT22;10615;42.702;23.314;2023-05-29T03:05:41;15.50;99.90
20911;DHT22;10615;42.702;23.314;2023-05-29T03:06:41;15.40;99.90
20911;DHT22;10615;42.702;23.314;2023-05-29T03:07:42;15.50;99.90
20911;DHT22;10615;42.702;23.314;2023-05-29T03:08:43;15.50;99.90
20911;DHT22;10615;42.702;23.314;2023-05-29T03:09:45;15.60;99.90
20911;DHT22;10615;42.702;23.314;2023-05-29T03:10:45;15.60;99.90
20911;DHT22;10615;42.702;23.314;2023-05-29T03:11:47;15.60;99.90
20911;DHT22;10615;42.702;23.314;2023-05-29T03:12:49;15.70;99.90
20911;DHT22;10615;42.702;23.314;2023-05-29T03:13:51;15.60;99.90
20911;DHT22;10615;42.702;23.314;2023-05-29T03:14:52;15.70;99.90
20911;DHT22;10615;42.702;23.314;2023-05-29T03:15:52;15.70;99.90
20911;DHT22;10615;42.702;23.314;2023-05-29T03:16:57;15.70;99.90
20911;DHT22;10615;42.702;23.314;2023-05-29T03:17:59;15.70;99.90
20911;DHT22;10615;42.702;23.314;2023-05-29T03:19:00;15.80;99.90
20911;DHT22;10615;42.702;23.314;2023-05-29T03:20:01;15.80;99.90
20911;DHT22;10615;42.702;23.314;2023-05-29T03:21:06;15.80;99.90
20911;DHT22;10615;42.702;23.314;2023-05-29T03:22:07;15.80;99.90
20911;DHT22;10615;42.702;23.314;2023-05-29T03:23:07;15.70;99.90
20911;DHT22;10615;42.702;23.314;2023-05-29T03:24:08;15.70;99.90
20911;DHT22;10615;42.702;23.314;2023-05-29T03:25:08;15.70;99.90
20911;DHT22;10615;42.702;23.314;2023-05-29T03:26:09;15.70;99.90
20911;DHT22;10615;42.702;23.314;2023-05-29T03:27:11;15.70;99.90
20911;DHT22;10615;42.702;23.314;2023-05-29T03:28:11;15.60;99.90
20911;DHT22;10615;42.702;23.314;2023-05-29T03:29:12;15.70;99.90
20911;DHT22;10615;42.702;23.314;2023-05-29T03:30:12;15.70;99.90
20911;DHT22;10615;42.702;23.314;2023-05-29T03:31:13;15.70;99.90
20911;DHT22;10615;42.702;23.314;2023-05-29T03:32:14;15.70;99.90
20911;DHT22;10615;42.702;23.314;2023-05-29T03:33:14;15.70;99.90
20911;DHT22;10615;42.702;23.314;2023-05-29T03:34:15;15.70;99.90
20911;DHT22;10615;42.702;23.314;2023-05-29T03:35:15;15.80;99.90
20911;DHT22;10615;42.702;23.314;2023-05-29T03:36:16;15.80;99.90
20911;DHT22;10615;42.702;23.314;2023-05-29T03:37:17;15.80;99.90
20911;DHT22;10615;42.702;23.314;2023-05-29T03:38:17;15.90;99.90
20911;DHT22;10615;42.702;23.314;2023-05-29T03:39:18;15.90;99.90
20911;DHT22;10615;42.702;23.314;2023-05-29T03:40:19;15.90;99.90
20911;DHT22;10615;42.702;23.314;2023-05-29T03:41:19;15.90;99.90
20911;DHT22;10615;42.702;23.314;2023-05-29T03:42:20;16.00;99.90
20911;DHT22;10615;42.702;23.314;2023-05-29T03:43:21;16.00;99.90
20911;DHT22;10615;42.702;23.314;2023-05-29T03:44:21;16.00;99.90
20911;DHT22;10615;42.702;23.314;2023-05-29T03:45:22;16.00;99.90
20911;DHT22;10615;42.702;23.314;2023-05-29T03:46:22;16.00;99.90
20911;DHT22;10615;42.702;23.314;2023-05-29T03:47:23;16.10;99.90
20911;DHT22;10615;42.702;23.314;2023-05-29T03:48:23;16.20;99.90
20911;DHT22;10615;42.702;23.314;2023-05-29T03:49:24;16.20;99.90
20911;DHT22;10615;42.702;23.314;2023-05-29T03:50:24;16.30;99.90
20911;DHT22;10615;42.702;23.314;2023-05-29T03:51:25;16.30;99.90
20911;DHT22;10615;42.702;23.314;2023-05-29T03:52:25;16.40;99.90
20911;DHT22;10615;42.702;23.314;2023-05-29T03:53:26;16.40;99.90
20911;DHT22;10615;42.702;23.314;2023-05-29T03:54:27;16.50;99.90
20911;DHT22;10615;42.702;23.314;2023-05-29T03:55:27;16.50;99.90
20911;DHT22;10615;42.702;23.314;2023-05-29T03:56:28;16.60;99.90
20911;DHT22;10615;42.702;23.314;2023-05-29T03:57:29;16.60;99.90
20911;DHT22;10615;42.702;23.314;2023-05-29T03:58:29;16.60;99.90
20911;DHT22;10615;42.702;23.314;2023-05-29T03:59:30;16.60;99.90
20911;DHT22;10615;42.702;23.314;2023-05-29T04:11:01;16.60;99.90
20911;DHT22;10615;42.702;23.314;2023-05-29T04:12:03;16.40;99.90
20911;DHT22;10615;42.702;23.314;2023-05-29T04:13:05;16.40;99.90
20911;DHT22;10615;42.702;23.314;2023-05-29T04:14:09;16.40;99.90
20911;DHT22;10615;42.702;23.314;2023-05-29T04:15:09;16.40;99.90
20911;DHT22;10615;42.702;23.314;2023-05-29T04:16:10;16.40;99.90
20911;DHT22;10615;42.702;23.314;2023-05-29T04:17:11;16.40;99.90
20911;DHT22;10615;42.702;23.314;2023-05-29T04:18:11;16.40;99.90
20911;DHT22;10615;42.702;23.314;2023-05-29T04:19:12;16.40;99.90
20911;DHT22;10615;42.702;23.314;2023-05-29T04:20:12;16.40;99.90
20911;DHT22;10615;42.702;23.314;2023-05-29T04:21:13;16.40;99.90
20911;DHT22;10615;42.702;23.314;2023-05-29T04:22:13;16.30;99.90
20911;DHT22;10615;42.702;23.314;2023-05-29T04:23:14;16.30;99.90
20911;DHT22;10615;42.702;23.314;2023-05-29T04:24:15;16.30;99.90
20911;DHT22;10615;42.702;23.314;2023-05-29T04:25:15;16.30;99.90
20911;DHT22;10615;42.702;23.314;2023-05-29T04:26:16;16.30;99.90
20911;DHT22;10615;42.702;23.314;2023-05-29T04:27:17;16.30;99.90
20911;DHT22;10615;42.702;23.314;2023-05-29T04:28:17;16.30;99.90
20911;DHT22;10615;42.702;23.314;2023-05-29T04:29:20;16.30;99.90
20911;DHT22;10615;42.702;23.314;2023-05-29T04:30:21;16.40;99.90
20911;DHT22;10615;42.702;23.314;2023-05-29T04:31:21;16.40;99.90
20911;DHT22;10615;42.702;23.314;2023-05-29T04:32:22;16.40;99.90
20911;DHT22;10615;42.702;23.314;2023-05-29T04:33:23;16.40;99.90
20911;DHT22;10615;42.702;23.314;2023-05-29T04:34:24;16.50;99.90
20911;DHT22;10615;42.702;23.314;2023-05-29T04:35:25;16.50;99.90
20911;DHT22;10615;42.702;23.314;2023-05-29T04:36:28;16.60;99.90
20911;DHT22;10615;42.702;23.314;2023-05-29T04:37:32;16.70;99.90
20911;DHT22;10615;42.702;23.314;2023-05-29T04:38:37;16.70;99.90
20911;DHT22;10615;42.702;23.314;2023-05-29T04:39:38;16.70;99.90
20911;DHT22;10615;42.702;23.314;2023-05-29T04:40:38;16.70;99.90
20911;DHT22;10615;42.702;23.314;2023-05-29T04:41:40;16.70;99.90
20911;DHT22;10615;42.702;23.314;2023-05-29T04:42:41;16.70;99.90
20911;DHT22;10615;42.702;23.314;2023-05-29T04:43:41;16.70;99.90
20911;DHT22;10615;42.702;23.314;2023-05-29T04:44:42;16.70;99.90
20911;DHT22;10615;42.702;23.314;2023-05-29T04:45:43;16.70;99.90
20911;DHT22;10615;42.702;23.314;2023-05-29T04:46:44;16.70;99.90
20911;DHT22;10615;42.702;23.314;2023-05-29T04:47:45;16.80;99.90
20911;DHT22;10615;42.702;23.314;2023-05-29T04:48:45;16.80;99.90
20911;DHT22;10615;42.702;23.314;2023-05-29T04:49:46;16.80;99.90
20911;DHT22;10615;42.702;23.314;2023-05-29T04:50:48;16.80;99.90
20911;DHT22;10615;42.702;23.314;2023-05-29T04:51:49;16.70;99.90
20911;DHT22;10615;42.702;23.314;2023-05-29T04:52:52;16.60;99.90
20911;DHT22;10615;42.702;23.314;2023-05-29T04:53:53;16.70;99.90
20911;DHT22;10615;42.702;23.314;2023-05-29T04:54:54;16.60;99.90
20911;DHT22;10615;42.702;23.314;2023-05-29T04:55:55;16.50;99.90
20911;DHT22;10615;42.702;23.314;2023-05-29T04:56:55;16.50;99.90
20911;DHT22;10615;42.702;23.314;2023-05-29T04:57:56;16.50;99.90
20911;DHT22;10615;42.702;23.314;2023-05-29T04:58:57;16.40;99.90
20911;DHT22;10615;42.702;23.314;2023-05-29T04:59:58;16.40;99.90
20911;DHT22;10615;42.702;23.314;2023-05-29T05:00:59;16.40;99.90
20911;DHT22;10615;42.702;23.314;2023-05-29T05:02:00;16.40;99.90
20911;DHT22;10615;42.702;23.314;2023-05-29T05:03:00;16.40;99.90
20911;DHT22;10615;42.702;23.314;2023-05-29T05:04:01;16.40;99.90
20911;DHT22;10615;42.702;23.314;2023-05-29T05:05:01;16.40;99.90
20911;DHT22;10615;42.702;23.314;2023-05-29T05:06:02;16.40;99.90
20911;DHT22;10615;42.702;23.314;2023-05-29T05:07:04;16.50;99.90
20911;DHT22;10615;42.702;23.314;2023-05-29T05:08:05;16.60;99.90
20911;DHT22;10615;42.702;23.314;2023-05-29T05:09:06;16.60;99.90
20911;DHT22;10615;42.702;23.314;2023-05-29T05:10:06;16.70;99.90
20911;DHT22;10615;42.702;23.314;2023-05-29T05:11:07;16.70;99.90
20911;DHT22;10615;42.702;23.314;2023-05-29T05:12:08;16.80;99.90
20911;DHT22;10615;42.702;23.314;2023-05-29T05:13:08;16.80;99.90
20911;DHT22;10615;42.702;23.314;2023-05-29T05:14:11;16.80;99.90
20911;DHT22;10615;42.702;23.314;2023-05-29T05:15:12;16.90;99.90
20911;DHT22;10615;42.702;23.314;2023-05-29T05:16:13;16.90;99.90
20911;DHT22;10615;42.702;23.314;2023-05-29T05:17:13;16.90;99.90
20911;DHT22;10615;42.702;23.314;2023-05-29T05:18:14;16.90;99.90
20911;DHT22;10615;42.702;23.314;2023-05-29T05:19:15;17.00;99.90
20911;DHT22;10615;42.702;23.314;2023-05-29T05:20:15;16.90;99.90
20911;DHT22;10615;42.702;23.314;2023-05-29T05:21:16;16.90;99.90
20911;DHT22;10615;42.702;23.314;2023-05-29T05:22:17;16.90;99.90
20911;DHT22;10615;42.702;23.314;2023-05-29T05:23:17;17.00;99.90
20911;DHT22;10615;42.702;23.314;2023-05-29T05:24:18;17.00;99.90
20911;DHT22;10615;42.702;23.314;2023-05-29T05:25:19;17.00;99.90
20911;DHT22;10615;42.702;23.314;2023-05-29T05:26:19;17.00;99.90
20911;DHT22;10615;42.702;23.314;2023-05-29T05:27:20;17.10;99.90
20911;DHT22;10615;42.702;23.314;2023-05-29T05:28:21;17.10;99.90
20911;DHT22;10615;42.702;23.314;2023-05-29T05:29:22;17.10;99.90
20911;DHT22;10615;42.702;23.314;2023-05-29T05:30:22;17.10;99.90
20911;DHT22;10615;42.702;23.314;2023-05-29T05:31:23;17.10;99.90
20911;DHT22;10615;42.702;23.314;2023-05-29T05:32:23;17.10;99.90
20911;DHT22;10615;42.702;23.314;2023-05-29T05:33:24;17.10;99.90
20911;DHT22;10615;42.702;23.314;2023-05-29T05:34:25;17.10;99.90
20911;DHT22;10615;42.702;23.314;2023-05-29T05:35:25;17.10;99.90
20911;DHT22;10615;42.702;23.314;2023-05-29T05:36:26;17.10;99.90
20911;DHT22;10615;42.702;23.314;2023-05-29T05:37:27;17.10;99.90
20911;DHT22;10615;42.702;23.314;2023-05-29T05:38:27;17.20;99.90
20911;DHT22;10615;42.702;23.314;2023-05-29T05:39:28;17.30;99.90
20911;DHT22;10615;42.702;23.314;2023-05-29T05:40:28;17.30;99.90
20911;DHT22;10615;42.702;23.314;2023-05-29T05:41:29;17.40;99.90
20911;DHT22;10615;42.702;23.314;2023-05-29T05:42:29;17.60;99.90
20911;DHT22;10615;42.702;23.314;2023-05-29T05:43:30;17.70;99.90
20911;DHT22;10615;42.702;23.314;2023-05-29T05:44:31;18.00;99.90
20911;DHT22;10615;42.702;23.314;2023-05-29T05:45:31;18.40;99.90
20911;DHT22;10615;42.702;23.314;2023-05-29T05:46:32;18.90;99.90
20911;DHT22;10615;42.702;23.314;2023-05-29T05:47:33;19.30;99.90
20911;DHT22;10615;42.702;23.314;2023-05-29T05:48:34;19.70;99.60
20911;DHT22;10615;42.702;23.314;2023-05-29T05:49:34;19.90;97.80
20911;DHT22;10615;42.702;23.314;2023-05-29T05:50:35;20.10;96.30
20911;DHT22;10615;42.702;23.314;2023-05-29T05:51:36;20.40;95.20
20911;DHT22;10615;42.702;23.314;2023-05-29T05:52:37;20.50;93.80
20911;DHT22;10615;42.702;23.314;2023-05-29T05:53:38;20.60;92.50
20911;DHT22;10615;42.702;23.314;2023-05-29T05:54:39;20.60;91.60
20911;DHT22;10615;42.702;23.314;2023-05-29T05:55:40;20.60;91.00
20911;DHT22;10615;42.702;23.314;2023-05-29T05:56:40;20.50;90.60
20911;DHT22;10615;42.702;23.314;2023-05-29T05:57:41;20.50;90.10
20911;DHT22;10615;42.702;23.314;2023-05-29T05:58:42;20.40;89.80
20911;DHT22;10615;42.702;23.314;2023-05-29T05:59:42;20.40;89.50
20911;DHT22;10615;42.702;23.314;2023-05-29T06:00:43;20.50;90.00
20911;DHT22;10615;42.702;23.314;2023-05-29T06:01:44;20.90;90.40
20911;DHT22;10615;42.702;23.314;2023-05-29T06:02:44;21.40;90.50
20911;DHT22;10615;42.702;23.314;2023-05-29T06:03:45;22.00;89.80
20911;DHT22;10615;42.702;23.314;2023-05-29T06:04:46;22.50;87.10
20911;DHT22;10615;42.702;23.314;2023-05-29T06:05:47;22.80;84.00
20911;DHT22;10615;42.702;23.314;2023-05-29T06:06:47;23.20;81.50
20911;DHT22;10615;42.702;23.314;2023-05-29T06:07:48;23.50;79.10
20911;DHT22;10615;42.702;23.314;2023-05-29T06:08:49;23.70;76.40
20911;DHT22;10615;42.702;23.314;2023-05-29T06:09:50;23.90;74.90
20911;DHT22;10615;42.702;23.314;2023-05-29T06:10:50;24.20;73.30
20911;DHT22;10615;42.702;23.314;2023-05-29T06:11:51;24.40;71.70
20911;DHT22;10615;42.702;23.314;2023-05-29T06:12:51;24.40;70.00
20911;DHT22;10615;42.702;23.314;2023-05-29T06:13:53;24.30;68.80
20911;DHT22;10615;42.702;23.314;2023-05-29T06:14:54;24.10;67.60
20911;DHT22;10615;42.702;23.314;2023-05-29T06:15:55;23.80;67.40
20911;DHT22;10615;42.702;23.314;2023-05-29T06:16:56;23.80;67.70
20911;DHT22;10615;42.702;23.314;2023-05-29T06:17:57;23.70;68.20
20911;DHT22;10615;42.702;23.314;2023-05-29T06:18:57;23.50;68.40
20911;DHT22;10615;42.702;23.314;2023-05-29T06:19:58;23.40;68.70
20911;DHT22;10615;42.702;23.314;2023-05-29T06:20:59;23.30;69.20
20911;DHT22;10615;42.702;23.314;2023-05-29T06:22:00;23.60;69.90
20911;DHT22;10615;42.702;23.314;2023-05-29T06:23:01;23.80;70.00
20911;DHT22;10615;42.702;23.314;2023-05-29T06:24:02;24.20;69.90
20911;DHT22;10615;42.702;23.314;2023-05-29T06:25:03;24.30;68.60
20911;DHT22;10615;42.702;23.314;2023-05-29T06:26:04;24.10;66.90
20911;DHT22;10615;42.702;23.314;2023-05-29T06:27:05;23.90;66.10
20911;DHT22;10615;42.702;23.314;2023-05-29T06:28:06;23.50;66.10
20911;DHT22;10615;42.702;23.314;2023-05-29T06:29:07;23.20;66.80
20911;DHT22;10615;42.702;23.314;2023-05-29T06:30:08;23.20;68.10
20911;DHT22;10615;42.702;23.314;2023-05-29T06:31:09;23.20;69.00
20911;DHT22;10615;42.702;23.314;2023-05-29T06:32:10;23.30;69.40
20911;DHT22;10615;42.702;23.314;2023-05-29T06:33:11;23.40;69.20
20911;DHT22;10615;42.702;23.314;2023-05-29T06:34:11;23.70;69.10
20911;DHT22;10615;42.702;23.314;2023-05-29T06:35:12;24.10;69.30
20911;DHT22;10615;42.702;23.314;2023-05-29T06:36:13;24.70;68.90
20911;DHT22;10615;42.702;23.314;2023-05-29T06:37:14;25.30;67.50